Time;durP1;ratioP1;P1;durP2;ratioP2;P2;SDS_P1;SDS_P2;PMS_P1;PMS_P2;Temp;Humidity;BMP_temperature;BMP_pressure;BME280_temperature;BME280_humidity;BME280_pressure;Samples;Min_cycle;Max_cycle;Signal;HPM_P1;HPM_P2
2022/05/07 00:01:24;;;;;;;;;;;16.00;93.00;;;;;;4345764;33;44268;-82
2022/05/07 00:03:52;;;;;;;;;;;16.00;93.20;;;;;;4346368;32;44275;-80
2022/05/07 00:06:22;;;;;;;;;;;16.00;93.50;;;;;;4362604;32;42934;-79
2022/05/07 00:08:49;;;;;;;;;;;16.00;93.20;;;;;;4361365;32;42788;-80
2022/05/07 00:11:20;;;;;;;;;;;16.00;93.70;;;;;;4348724;32;42140;-80
2022/05/07 00:13:48;;;;;;;;;;;16.00;93.90;;;;;;4362155;32;42779;-80
2022/05/07 00:19:01;;;;;;;;;;;16.00;93.40;;;;;;4362852;32;20445;-80
2022/05/07 00:21:29;;;;;;;;;;;16.00;93.90;;;;;;4362377;32;44056;-80
2022/05/07 00:23:57;;;;;;;;;;;16.00;93.80;;;;;;4362096;32;44191;-80
2022/05/07 00:26:24;;;;;;;;;;;16.00;93.90;;;;;;4362041;32;42807;-80
2022/05/07 00:28:51;;;;;;;;;;;16.00;93.20;;;;;;4362641;32;42764;-81
2022/05/07 00:31:18;;;;;;;;;;;15.90;93.70;;;;;;4362253;32;44036;-79
2022/05/07 00:33:45;;;;;;;;;;;15.90;93.50;;;;;;4362150;32;44122;-79
2022/05/07 00:36:12;;;;;;;;;;;15.90;93.30;;;;;;4348353;32;43758;-80
2022/05/07 00:38:39;;;;;;;;;;;15.90;93.60;;;;;;4348824;32;44116;-79
2022/05/07 00:41:06;;;;;;;;;;;15.90;93.20;;;;;;4361889;32;43879;-79
2022/05/07 00:43:35;;;;;;;;;;;15.80;93.60;;;;;;4362216;32;43954;-79
2022/05/07 00:46:02;;;;;;;;;;;15.80;93.40;;;;;;4360839;32;42739;-79
2022/05/07 00:48:30;;;;;;;;;;;15.80;93.50;;;;;;4361535;32;44169;-79
2022/05/07 00:53:45;;;;;;;;;;;15.80;93.40;;;;;;4361818;32;42690;-80
2022/05/07 00:56:12;;;;;;;;;;;15.80;93.40;;;;;;4361828;32;43929;-79
2022/05/07 00:58:39;;;;;;;;;;;15.80;93.40;;;;;;4361383;32;42895;-79
2022/05/07 01:01:06;;;;;;;;;;;15.70;93.20;;;;;;4348416;32;44062;-79
2022/05/07 01:03:35;;;;;;;;;;;15.70;93.20;;;;;;4347926;32;43474;-79
2022/05/07 01:06:02;;;;;;;;;;;15.70;94.10;;;;;;4361405;32;44267;-79
2022/05/07 01:08:30;;;;;;;;;;;15.70;93.50;;;;;;4361527;32;43765;-79
2022/05/07 01:10:58;;;;;;;;;;;15.70;93.40;;;;;;4361727;32;43466;-79
2022/05/07 01:13:25;;;;;;;;;;;15.70;93.40;;;;;;4361218;32;43698;-79
2022/05/07 01:15:55;;;;;;;;;;;15.70;93.40;;;;;;4360767;32;45548;-80
2022/05/07 01:18:23;;;;;;;;;;;15.60;93.20;;;;;;4361512;32;38481;-79
2022/05/07 01:20:51;;;;;;;;;;;15.60;93.20;;;;;;4362375;32;20035;-79
2022/05/07 01:23:21;;;;;;;;;;;15.60;93.10;;;;;;4361311;32;43937;-79
2022/05/07 01:25:48;;;;;;;;;;;15.70;93.50;;;;;;4347941;32;44932;-79
2022/05/07 01:28:15;;;;;;;;;;;15.60;93.40;;;;;;4359873;32;43808;-79
2022/05/07 01:30:42;;;;;;;;;;;15.60;93.20;;;;;;4360886;32;43763;-79
2022/05/07 01:33:12;;;;;;;;;;;15.60;93.40;;;;;;4347832;32;43795;-79
2022/05/07 01:35:39;;;;;;;;;;;15.60;93.20;;;;;;4347737;32;42827;-79
2022/05/07 01:38:06;;;;;;;;;;;15.60;93.50;;;;;;4347626;32;43851;-79
2022/05/07 01:40:36;;;;;;;;;;;15.60;93.60;;;;;;4360896;32;42919;-78
2022/05/07 01:43:03;;;;;;;;;;;15.60;93.80;;;;;;4347498;32;42943;-79
2022/05/07 01:45:31;;;;;;;;;;;15.60;93.50;;;;;;4347509;32;43905;-78
2022/05/07 01:48:10;;;;;;;;;;;15.60;93.20;;;;;;4359613;32;43671;-78
2022/05/07 01:50:38;;;;;;;;;;;15.60;93.80;;;;;;4360708;32;43749;-79
2022/05/07 01:53:09;;;;;;;;;;;15.60;93.50;;;;;;4360686;32;43914;-78
2022/05/07 01:55:39;;;;;;;;;;;15.50;93.70;;;;;;4359584;32;43773;-79
2022/05/07 01:58:06;;;;;;;;;;;15.50;93.60;;;;;;4360564;32;42879;-79
2022/05/07 02:00:34;;;;;;;;;;;15.50;93.70;;;;;;4361185;32;43408;-78
2022/05/07 02:03:01;;;;;;;;;;;15.50;93.80;;;;;;4346978;32;43879;-78
2022/05/07 02:05:29;;;;;;;;;;;15.50;94.20;;;;;;4360421;32;44127;-78
2022/05/07 02:07:56;;;;;;;;;;;15.50;93.80;;;;;;4361061;32;44114;-79
2022/05/07 02:10:24;;;;;;;;;;;15.50;93.70;;;;;;4347483;32;43202;-78
2022/05/07 02:12:51;;;;;;;;;;;15.40;93.70;;;;;;4360840;32;44215;-78
2022/05/07 02:15:21;;;;;;;;;;;15.40;93.70;;;;;;4360423;32;45240;-78
2022/05/07 02:17:48;;;;;;;;;;;15.40;93.90;;;;;;4360796;32;44714;-78
2022/05/07 02:20:15;;;;;;;;;;;15.40;93.90;;;;;;4360647;32;42775;-78
2022/05/07 02:22:44;;;;;;;;;;;15.40;94.00;;;;;;4360203;32;42662;-79
2022/05/07 02:25:11;;;;;;;;;;;15.40;93.90;;;;;;4360407;32;43014;-79
2022/05/07 02:27:39;;;;;;;;;;;15.40;93.70;;;;;;4358881;32;43318;-78
2022/05/07 02:30:06;;;;;;;;;;;15.30;93.60;;;;;;4361393;32;20036;-79
2022/05/07 02:32:34;;;;;;;;;;;15.30;93.70;;;;;;4360751;32;43493;-78
2022/05/07 02:35:01;;;;;;;;;;;15.30;93.60;;;;;;4360166;32;42769;-78
2022/05/07 02:37:28;;;;;;;;;;;15.30;93.90;;;;;;4346635;32;43531;-78
2022/05/07 02:39:55;;;;;;;;;;;15.30;93.50;;;;;;4360154;32;43773;-77
2022/05/07 02:42:39;;;;;;;;;;;15.30;93.80;;;;;;4346756;32;43172;-77
2022/05/07 02:45:08;;;;;;;;;;;15.30;93.40;;;;;;4360605;32;43872;-78
2022/05/07 02:47:39;;;;;;;;;;;15.30;93.60;;;;;;4360345;32;44282;-78
2022/05/07 02:50:07;;;;;;;;;;;15.30;93.50;;;;;;4359278;32;43494;-78
2022/05/07 02:52:34;;;;;;;;;;;15.30;93.70;;;;;;4359296;32;43924;-78
2022/05/07 02:55:05;;;;;;;;;;;15.30;93.80;;;;;;4360568;32;43157;-79
2022/05/07 02:57:32;;;;;;;;;;;15.30;93.70;;;;;;4360633;32;43949;-79
2022/05/07 02:59:59;;;;;;;;;;;15.20;93.80;;;;;;4360138;32;44871;-78
2022/05/07 03:02:27;;;;;;;;;;;15.30;93.80;;;;;;4359584;32;43197;-78
2022/05/07 03:04:55;;;;;;;;;;;15.20;93.60;;;;;;4360193;32;44100;-78
2022/05/07 03:07:22;;;;;;;;;;;15.20;93.60;;;;;;4358602;32;42620;-78
2022/05/07 03:09:49;;;;;;;;;;;15.20;93.60;;;;;;4359803;32;43260;-78
2022/05/07 03:12:16;;;;;;;;;;;15.20;93.70;;;;;;4359648;32;43871;-78
2022/05/07 03:14:43;;;;;;;;;;;15.20;93.90;;;;;;4359942;32;44230;-78
2022/05/07 03:17:10;;;;;;;;;;;15.20;93.70;;;;;;4359629;32;43985;-79
2022/05/07 03:19:37;;;;;;;;;;;15.10;93.90;;;;;;4359673;32;42972;-78
2022/05/07 03:22:04;;;;;;;;;;;15.10;93.70;;;;;;4359688;33;43965;-78
2022/05/07 03:24:37;;;;;;;;;;;15.10;94.00;;;;;;4360049;33;43188;-78
2022/05/07 03:27:05;;;;;;;;;;;15.10;93.90;;;;;;4359960;33;44120;-78
2022/05/07 03:29:32;;;;;;;;;;;15.10;94.00;;;;;;4359728;33;42326;-78
2022/05/07 03:31:59;;;;;;;;;;;15.10;93.90;;;;;;4346127;33;43607;-78
2022/05/07 03:34:26;;;;;;;;;;;15.10;94.20;;;;;;4359875;33;45003;-78
2022/05/07 03:36:53;;;;;;;;;;;15.10;94.30;;;;;;4358787;33;43736;-79
2022/05/07 03:39:21;;;;;;;;;;;15.10;94.30;;;;;;4347935;32;43251;-78
2022/05/07 03:41:49;;;;;;;;;;;15.10;94.30;;;;;;4363041;32;43283;-79
2022/05/07 03:44:16;;;;;;;;;;;15.10;94.00;;;;;;4349634;32;44215;-79
2022/05/07 03:46:43;;;;;;;;;;;15.10;94.30;;;;;;4362699;32;43530;-78
2022/05/07 03:49:10;;;;;;;;;;;15.10;94.50;;;;;;4362396;32;44415;-78
2022/05/07 03:54:23;;;;;;;;;;;15.00;94.60;;;;;;4363020;32;43913;-78
2022/05/07 03:56:50;;;;;;;;;;;15.00;94.50;;;;;;4362262;32;42785;-79
2022/05/07 03:59:17;;;;;;;;;;;15.00;94.50;;;;;;4349024;32;43943;-78
2022/05/07 04:01:44;;;;;;;;;;;15.00;94.60;;;;;;4361598;32;43867;-79
2022/05/07 04:04:11;;;;;;;;;;;15.00;94.70;;;;;;4362775;32;44187;-78
2022/05/07 04:06:38;;;;;;;;;;;15.00;94.70;;;;;;4362229;32;44043;-79
2022/05/07 04:09:05;;;;;;;;;;;15.00;94.60;;;;;;4362533;32;43886;-79
2022/05/07 04:11:32;;;;;;;;;;;15.00;94.70;;;;;;4361055;32;43016;-79
2022/05/07 04:13:59;;;;;;;;;;;15.00;94.80;;;;;;4362337;32;43201;-79
2022/05/07 04:16:27;;;;;;;;;;;15.00;94.90;;;;;;4348661;32;43860;-79
2022/05/07 04:18:56;;;;;;;;;;;15.00;95.00;;;;;;4362348;32;42649;-79
2022/05/07 04:21:24;;;;;;;;;;;14.90;95.00;;;;;;4349105;32;43223;-78
2022/05/07 04:23:51;;;;;;;;;;;14.90;95.20;;;;;;4362421;32;43117;-79
2022/05/07 04:26:18;;;;;;;;;;;14.90;95.20;;;;;;4362267;32;44598;-79
2022/05/07 04:28:45;;;;;;;;;;;14.90;95.40;;;;;;4361864;32;43041;-79
2022/05/07 04:31:15;;;;;;;;;;;14.90;95.40;;;;;;4348651;32;43014;-80
2022/05/07 04:33:43;;;;;;;;;;;14.90;95.40;;;;;;4362471;32;45137;-80
2022/05/07 04:36:10;;;;;;;;;;;14.90;95.50;;;;;;4362007;32;43164;-79
2022/05/07 04:38:37;;;;;;;;;;;14.90;95.60;;;;;;4361078;32;44266;-79
2022/05/07 04:41:04;;;;;;;;;;;14.90;95.50;;;;;;4348386;32;42730;-79
2022/05/07 04:43:31;;;;;;;;;;;14.90;95.70;;;;;;4361905;32;44210;-79
2022/05/07 04:45:59;;;;;;;;;;;14.90;95.60;;;;;;4361655;32;42599;-79
2022/05/07 04:48:26;;;;;;;;;;;14.90;95.60;;;;;;4348331;32;42612;-79
2022/05/07 04:50:53;;;;;;;;;;;14.90;95.80;;;;;;4361584;32;43260;-79
2022/05/07 04:53:20;;;;;;;;;;;14.90;95.80;;;;;;4348617;32;43362;-79
2022/05/07 04:55:47;;;;;;;;;;;14.90;95.90;;;;;;4348845;32;44008;-79
2022/05/07 04:58:14;;;;;;;;;;;14.90;95.90;;;;;;4361141;32;43869;-80
2022/05/07 05:00:41;;;;;;;;;;;14.80;96.00;;;;;;4361948;32;44017;-79
2022/05/07 05:03:13;;;;;;;;;;;14.80;96.00;;;;;;4361299;32;43373;-79
2022/05/07 05:05:41;;;;;;;;;;;14.80;96.10;;;;;;4361743;32;45137;-79
2022/05/07 05:08:08;;;;;;;;;;;14.80;96.20;;;;;;4361722;32;44198;-79
2022/05/07 05:10:38;;;;;;;;;;;14.80;96.30;;;;;;4361384;32;44143;-79
2022/05/07 05:13:05;;;;;;;;;;;14.80;96.20;;;;;;4361611;32;44339;-78
2022/05/07 05:15:32;;;;;;;;;;;14.80;96.30;;;;;;4361569;32;44015;-78
2022/05/07 05:18:00;;;;;;;;;;;14.80;96.40;;;;;;4361611;32;43108;-79
2022/05/07 05:20:29;;;;;;;;;;;14.80;96.40;;;;;;4361236;32;43819;-79
2022/05/07 05:22:56;;;;;;;;;;;14.80;96.40;;;;;;4361582;32;43931;-78
2022/05/07 05:25:23;;;;;;;;;;;14.80;96.50;;;;;;4347807;32;43067;-78
2022/05/07 05:27:50;;;;;;;;;;;14.80;96.70;;;;;;4361194;32;44875;-78
2022/05/07 05:30:18;;;;;;;;;;;14.80;96.80;;;;;;4361255;32;43869;-78
2022/05/07 05:32:45;;;;;;;;;;;14.80;97.00;;;;;;4361231;32;42517;-78
2022/05/07 05:35:12;;;;;;;;;;;14.80;97.20;;;;;;4361366;32;44196;-79
2022/05/07 05:37:42;;;;;;;;;;;14.80;97.30;;;;;;4348256;32;43170;-78
2022/05/07 05:40:09;;;;;;;;;;;14.80;97.40;;;;;;4348215;32;43514;-79
2022/05/07 05:42:36;;;;;;;;;;;14.80;97.60;;;;;;4361220;32;43761;-79
2022/05/07 05:45:07;;;;;;;;;;;14.80;97.50;;;;;;4360071;32;43818;-78
2022/05/07 05:47:37;;;;;;;;;;;14.80;97.50;;;;;;4360795;32;43533;-79
2022/05/07 05:50:04;;;;;;;;;;;14.80;97.70;;;;;;4359928;32;43064;-78
2022/05/07 05:52:32;;;;;;;;;;;14.90;97.90;;;;;;4360565;32;42894;-78
2022/05/07 05:54:59;;;;;;;;;;;14.80;97.90;;;;;;4360771;32;43025;-78
2022/05/07 05:57:26;;;;;;;;;;;14.90;97.80;;;;;;4347288;32;43780;-79
2022/05/07 05:59:54;;;;;;;;;;;14.80;97.70;;;;;;4360925;32;43611;-78
2022/05/07 06:02:22;;;;;;;;;;;14.80;97.70;;;;;;4359055;32;43473;-78
2022/05/07 06:04:50;;;;;;;;;;;14.80;97.80;;;;;;4347652;32;43093;-79
2022/05/07 06:07:17;;;;;;;;;;;14.80;97.80;;;;;;4360655;32;42699;-80
2022/05/07 06:09:44;;;;;;;;;;;14.90;97.90;;;;;;4360930;32;45477;-79
2022/05/07 06:12:14;;;;;;;;;;;14.80;97.90;;;;;;4360321;32;43024;-79
2022/05/07 06:14:44;;;;;;;;;;;14.90;97.90;;;;;;4360777;32;43311;-79
2022/05/07 06:17:11;;;;;;;;;;;14.90;97.60;;;;;;4347066;32;44195;-79
2022/05/07 06:19:38;;;;;;;;;;;14.90;97.70;;;;;;4360323;32;43898;-79
2022/05/07 06:22:11;;;;;;;;;;;14.90;97.80;;;;;;4347220;32;44213;-78
2022/05/07 06:27:32;;;;;;;;;;;14.90;97.70;;;;;;4360174;32;43486;-79
2022/05/07 06:30:02;;;;;;;;;;;14.90;97.90;;;;;;4347003;32;43746;-79
2022/05/07 06:32:31;;;;;;;;;;;14.90;97.70;;;;;;4360313;32;44015;-76
2022/05/07 06:34:59;;;;;;;;;;;14.90;97.70;;;;;;4347445;32;43061;-76
2022/05/07 06:37:26;;;;;;;;;;;14.90;97.70;;;;;;4360088;32;43188;-78
2022/05/07 06:39:56;;;;;;;;;;;14.90;97.70;;;;;;4347219;32;43903;-78
2022/05/07 06:42:27;;;;;;;;;;;14.90;97.90;;;;;;4347365;32;43218;-78
2022/05/07 06:44:54;;;;;;;;;;;14.90;97.90;;;;;;4358886;32;43192;-78
2022/05/07 06:47:31;;;;;;;;;;;14.90;97.90;;;;;;4348183;32;44197;-78
2022/05/07 06:50:00;;;;;;;;;;;14.90;97.90;;;;;;4359330;32;44765;-76
2022/05/07 06:52:29;;;;;;;;;;;14.90;97.80;;;;;;4360144;32;43948;-77
2022/05/07 06:54:56;;;;;;;;;;;14.90;97.80;;;;;;4359220;32;43518;-77
2022/05/07 06:57:24;;;;;;;;;;;14.90;97.80;;;;;;4347229;32;43918;-76
2022/05/07 06:59:52;;;;;;;;;;;14.90;97.90;;;;;;4360278;32;44337;-76
2022/05/07 07:02:20;;;;;;;;;;;14.90;97.90;;;;;;4346442;32;44049;-77
2022/05/07 07:04:47;;;;;;;;;;;15.00;97.80;;;;;;4359759;32;43962;-77
2022/05/07 07:07:14;;;;;;;;;;;15.00;97.90;;;;;;4360144;32;43773;-76
2022/05/07 07:09:44;;;;;;;;;;;15.00;97.90;;;;;;4347231;32;43903;-77
2022/05/07 07:12:14;;;;;;;;;;;14.90;98.00;;;;;;4359871;32;44230;-77
2022/05/07 07:14:41;;;;;;;;;;;15.00;97.90;;;;;;4358493;32;42801;-76
2022/05/07 07:17:16;;;;;;;;;;;15.00;98.00;;;;;;4359981;32;43782;-77
2022/05/07 07:19:46;;;;;;;;;;;15.00;98.00;;;;;;4360067;32;43262;-77
2022/05/07 07:22:13;;;;;;;;;;;15.00;98.10;;;;;;4358877;33;42048;-77
2022/05/07 07:24:41;;;;;;;;;;;15.00;98.00;;;;;;4359720;33;42901;-77
2022/05/07 07:27:08;;;;;;;;;;;15.00;98.10;;;;;;4359870;33;43473;-77
2022/05/07 07:29:35;;;;;;;;;;;15.00;98.10;;;;;;4359592;33;43901;-76
2022/05/07 07:32:03;;;;;;;;;;;15.00;98.10;;;;;;4359453;33;43533;-76
2022/05/07 07:34:30;;;;;;;;;;;15.10;98.20;;;;;;4360089;33;43809;-76
2022/05/07 07:37:00;;;;;;;;;;;15.00;98.30;;;;;;4359652;33;42885;-76
2022/05/07 07:39:27;;;;;;;;;;;15.10;98.40;;;;;;4359518;33;43278;-76
2022/05/07 07:41:54;;;;;;;;;;;15.10;98.30;;;;;;4346784;33;43071;-76
2022/05/07 07:44:21;;;;;;;;;;;15.00;98.40;;;;;;4359981;33;43059;-77
2022/05/07 07:49:34;;;;;;;;;;;15.00;98.40;;;;;;4359601;33;42539;-76
2022/05/07 07:52:02;;;;;;;;;;;15.10;98.40;;;;;;4346039;33;44196;-76
2022/05/07 07:54:36;;;;;;;;;;;15.10;98.50;;;;;;4360302;33;19989;-77
2022/05/07 07:57:03;;;;;;;;;;;15.10;98.70;;;;;;4359352;33;42910;-77
2022/05/07 07:59:30;;;;;;;;;;;15.10;98.50;;;;;;4359305;33;44756;-77
2022/05/07 08:01:57;;;;;;;;;;;15.10;98.60;;;;;;4358532;33;43796;-76
2022/05/07 08:04:27;;;;;;;;;;;15.10;98.60;;;;;;4359746;33;42989;-77
2022/05/07 08:12:27;;;;;;;;;;;15.10;98.80;;;;;;4359966;33;43874;-77
2022/05/07 08:14:54;;;;;;;;;;;15.10;98.80;;;;;;4359903;33;43036;-77
2022/05/07 08:17:21;;;;;;;;;;;15.10;98.70;;;;;;4359317;33;42567;-76
2022/05/07 08:19:48;;;;;;;;;;;15.10;98.50;;;;;;4359177;33;43490;-77
2022/05/07 08:22:15;;;;;;;;;;;15.10;98.60;;;;;;4359195;33;42262;-77
2022/05/07 08:24:43;;;;;;;;;;;15.10;98.60;;;;;;4360559;32;20038;-76
2022/05/07 08:27:10;;;;;;;;;;;15.10;98.70;;;;;;4362356;32;43201;-76
2022/05/07 08:29:37;;;;;;;;;;;15.10;98.80;;;;;;4362356;32;44067;-77
2022/05/07 08:32:07;;;;;;;;;;;15.10;98.90;;;;;;4361755;32;43654;-76
2022/05/07 08:34:34;;;;;;;;;;;15.20;98.90;;;;;;4360723;32;42481;-76
2022/05/07 08:37:01;;;;;;;;;;;15.20;98.90;;;;;;4348705;32;44172;-77
2022/05/07 08:39:29;;;;;;;;;;;15.10;98.90;;;;;;4348438;32;44332;-76
2022/05/07 08:41:59;;;;;;;;;;;15.10;98.80;;;;;;4348832;32;43639;-77
2022/05/07 08:44:29;;;;;;;;;;;15.20;98.90;;;;;;4361644;32;44212;-76
2022/05/07 08:46:59;;;;;;;;;;;15.20;98.90;;;;;;4361954;32;44202;-77
2022/05/07 08:49:29;;;;;;;;;;;15.20;99.00;;;;;;4361578;32;42116;-77
2022/05/07 08:51:56;;;;;;;;;;;15.20;99.10;;;;;;4361600;32;42436;-76
2022/05/07 08:54:23;;;;;;;;;;;15.20;99.20;;;;;;4348694;32;45646;-76
2022/05/07 08:56:50;;;;;;;;;;;15.20;99.20;;;;;;4348517;32;42841;-76
2022/05/07 08:59:18;;;;;;;;;;;15.20;99.10;;;;;;4361878;32;42324;-78
2022/05/07 09:01:45;;;;;;;;;;;15.20;99.30;;;;;;4347919;32;45819;-77
2022/05/07 09:04:12;;;;;;;;;;;15.20;99.40;;;;;;4348168;32;43482;-76
2022/05/07 09:06:39;;;;;;;;;;;15.20;99.30;;;;;;4361361;32;43891;-76
2022/05/07 09:09:09;;;;;;;;;;;15.20;99.30;;;;;;4361848;32;43567;-77
2022/05/07 09:11:42;;;;;;;;;;;15.30;99.40;;;;;;4361929;32;44849;-77
2022/05/07 09:14:09;;;;;;;;;;;15.20;99.40;;;;;;4360663;32;43710;-77
2022/05/07 09:16:40;;;;;;;;;;;15.30;99.30;;;;;;4361312;32;43021;-78
2022/05/07 09:19:27;;;;;;;;;;;15.30;99.20;;;;;;4361646;32;44222;-76
2022/05/07 09:22:08;;;;;;;;;;;15.30;99.50;;;;;;4361970;32;43026;-76
2022/05/07 09:24:35;;;;;;;;;;;15.30;99.20;;;;;;4361626;32;43900;-77
2022/05/07 09:27:04;;;;;;;;;;;15.30;99.20;;;;;;4361503;32;44534;-77
2022/05/07 09:29:31;;;;;;;;;;;15.30;99.30;;;;;;4348288;32;42882;-77
2022/05/07 09:32:08;;;;;;;;;;;15.30;99.20;;;;;;4361542;32;43041;-76
2022/05/07 09:37:38;;;;;;;;;;;15.30;99.00;;;;;;4360796;32;43871;-77
2022/05/07 09:40:06;;;;;;;;;;;15.30;99.10;;;;;;4360348;32;43962;-77
2022/05/07 09:42:33;;;;;;;;;;;15.30;99.20;;;;;;4348161;32;44179;-77
2022/05/07 09:45:01;;;;;;;;;;;15.30;99.20;;;;;;4361263;32;43724;-77
2022/05/07 09:47:28;;;;;;;;;;;15.40;99.40;;;;;;4347454;32;43874;-77
2022/05/07 09:58:17;;;;;;;;;;;15.40;99.70;;;;;;4361224;32;43495;-77
2022/05/07 10:01:03;;;;;;;;;;;15.40;99.70;;;;;;4360602;32;43186;-77
2022/05/07 10:03:49;;;;;;;;;;;15.40;99.80;;;;;;4360733;32;42778;-78
2022/05/07 10:06:35;;;;;;;;;;;15.40;99.80;;;;;;4361073;32;43825;-78
2022/05/07 10:09:02;;;;;;;;;;;15.50;99.90;;;;;;4361134;32;44201;-77
2022/05/07 10:11:29;;;;;;;;;;;15.50;99.90;;;;;;4360446;32;43241;-77
2022/05/07 10:13:58;;;;;;;;;;;15.50;99.90;;;;;;4360323;32;43515;-77
2022/05/07 10:16:31;;;;;;;;;;;15.50;99.90;;;;;;4360554;32;44796;-77
2022/05/07 10:19:10;;;;;;;;;;;15.50;99.90;;;;;;4360249;32;44394;-77
2022/05/07 10:21:37;;;;;;;;;;;15.50;99.90;;;;;;4359702;32;43475;-77
2022/05/07 10:24:05;;;;;;;;;;;15.60;99.90;;;;;;4360910;32;43897;-77
2022/05/07 10:26:39;;;;;;;;;;;15.50;99.90;;;;;;4360305;32;45741;-77
2022/05/07 10:29:07;;;;;;;;;;;15.60;99.90;;;;;;4360192;32;43201;-78
2022/05/07 10:31:46;;;;;;;;;;;15.60;99.90;;;;;;4360335;32;44187;-78
2022/05/07 10:34:23;;;;;;;;;;;15.60;99.90;;;;;;4360644;32;43712;-77
2022/05/07 10:37:03;;;;;;;;;;;15.60;99.90;;;;;;4360450;32;43797;-77
2022/05/07 10:39:31;;;;;;;;;;;15.60;99.90;;;;;;4360342;32;43527;-77
2022/05/07 10:42:01;;;;;;;;;;;15.60;99.90;;;;;;4359440;32;44257;-77
2022/05/07 10:44:32;;;;;;;;;;;15.60;99.90;;;;;;4360369;32;43470;-77
2022/05/07 10:47:10;;;;;;;;;;;15.60;99.90;;;;;;4346848;32;44326;-77
2022/05/07 10:49:54;;;;;;;;;;;15.70;99.90;;;;;;4359839;32;45877;-77
2022/05/07 10:52:28;;;;;;;;;;;15.70;99.90;;;;;;4359532;32;42737;-77
2022/05/07 10:55:09;;;;;;;;;;;15.70;99.90;;;;;;4360337;32;43484;-77
2022/05/07 10:57:40;;;;;;;;;;;15.70;99.90;;;;;;4359261;32;43276;-77
2022/05/07 11:00:10;;;;;;;;;;;15.70;99.90;;;;;;4359877;32;43515;-77
2022/05/07 11:02:37;;;;;;;;;;;15.70;99.90;;;;;;4346370;32;44237;-77
2022/05/07 11:05:05;;;;;;;;;;;15.70;99.90;;;;;;4359830;32;42585;-79
2022/05/07 11:07:32;;;;;;;;;;;15.70;99.90;;;;;;4359176;32;43765;-77
2022/05/07 11:09:59;;;;;;;;;;;15.70;99.90;;;;;;4359813;32;43240;-77
2022/05/07 11:12:27;;;;;;;;;;;15.80;99.90;;;;;;4359682;32;43487;-77
2022/05/07 11:14:55;;;;;;;;;;;15.80;99.90;;;;;;4359881;32;42641;-77
2022/05/07 11:17:29;;;;;;;;;;;15.80;99.90;;;;;;4359979;32;42877;-77
2022/05/07 11:19:57;;;;;;;;;;;15.80;99.90;;;;;;4359060;32;42874;-77
2022/05/07 11:22:31;;;;;;;;;;;15.80;99.90;;;;;;4346332;33;44634;-77
2022/05/07 11:24:59;;;;;;;;;;;15.80;99.90;;;;;;4359987;33;42760;-77
2022/05/07 11:27:30;;;;;;;;;;;15.90;99.90;;;;;;4346414;33;44880;-77
2022/05/07 11:29:58;;;;;;;;;;;15.90;99.90;;;;;;4360105;33;42883;-77
2022/05/07 11:32:42;;;;;;;;;;;15.90;99.90;;;;;;4359018;33;43536;-77
2022/05/07 11:35:10;;;;;;;;;;;15.90;99.90;;;;;;4359858;33;46060;-77
2022/05/07 11:37:38;;;;;;;;;;;15.90;99.90;;;;;;4358529;33;43046;-77
2022/05/07 11:40:06;;;;;;;;;;;15.90;99.90;;;;;;4358485;33;43598;-77
2022/05/07 11:42:33;;;;;;;;;;;15.90;99.90;;;;;;4346129;33;43027;-77
2022/05/07 11:45:27;;;;;;;;;;;16.00;99.90;;;;;;4348726;33;43320;-77
2022/05/07 11:47:58;;;;;;;;;;;16.00;99.90;;;;;;4358591;33;43741;-77
2022/05/07 11:50:27;;;;;;;;;;;16.10;99.90;;;;;;4346287;33;43003;-77
2022/05/07 11:52:57;;;;;;;;;;;16.10;99.90;;;;;;4358350;33;43494;-77
2022/05/07 11:55:29;;;;;;;;;;;16.10;99.90;;;;;;4359451;33;42917;-79
2022/05/07 11:57:58;;;;;;;;;;;16.10;99.90;;;;;;4358990;33;43765;-78
2022/05/07 12:00:30;;;;;;;;;;;16.20;99.90;;;;;;4361599;32;20002;-77
2022/05/07 12:03:00;;;;;;;;;;;16.10;99.90;;;;;;4358768;32;43566;-78
2022/05/07 12:05:37;;;;;;;;;;;16.20;99.90;;;;;;4347961;33;41994;-77
2022/05/07 12:08:11;;;;;;;;;;;16.20;99.90;;;;;;4347362;33;44189;-78
2022/05/07 12:10:42;;;;;;;;;;;16.20;99.90;;;;;;4347907;33;43872;-78
2022/05/07 12:13:10;;;;;;;;;;;16.30;99.90;;;;;;4347416;33;43540;-78
2022/05/07 12:18:24;;;;;;;;;;;16.30;99.90;;;;;;4347791;33;43924;-78
2022/05/07 12:20:54;;;;;;;;;;;16.40;99.90;;;;;;4347657;33;42824;-77
2022/05/07 12:31:42;;;;;;;;;;;16.50;99.70;;;;;;4347948;33;20008;-78
2022/05/07 12:34:11;;;;;;;;;;;16.50;99.80;;;;;;4346946;33;43473;-77
2022/05/07 12:36:41;;;;;;;;;;;16.60;99.90;;;;;;4347536;32;45789;-77
2022/05/07 12:39:08;;;;;;;;;;;16.60;99.90;;;;;;4347340;33;42290;-78
2022/05/07 12:41:39;;;;;;;;;;;16.60;99.90;;;;;;4346211;33;44756;-78
2022/05/07 12:44:06;;;;;;;;;;;16.70;99.90;;;;;;4347022;33;43294;-78
2022/05/07 12:46:36;;;;;;;;;;;16.70;99.80;;;;;;4345951;33;43861;-78
2022/05/07 12:49:03;;;;;;;;;;;16.70;99.90;;;;;;4347192;33;43015;-78
2022/05/07 12:51:30;;;;;;;;;;;16.70;99.90;;;;;;4346204;33;43191;-78
2022/05/07 12:53:57;;;;;;;;;;;16.80;99.90;;;;;;4345599;33;43896;-78
2022/05/07 12:56:25;;;;;;;;;;;16.80;99.70;;;;;;4358389;32;43884;-78
2022/05/07 12:58:52;;;;;;;;;;;16.90;99.70;;;;;;4345530;33;43978;-78
2022/05/07 13:01:19;;;;;;;;;;;16.90;99.80;;;;;;4347164;33;43469;-78
2022/05/07 13:03:46;;;;;;;;;;;16.90;99.80;;;;;;4360056;32;44187;-78
2022/05/07 13:06:13;;;;;;;;;;;17.00;99.90;;;;;;4361579;32;43853;-79
2022/05/07 13:08:40;;;;;;;;;;;17.00;99.90;;;;;;4348436;32;42328;-80
2022/05/07 13:11:08;;;;;;;;;;;17.00;99.70;;;;;;4361323;32;44200;-79
2022/05/07 13:13:35;;;;;;;;;;;17.00;99.50;;;;;;4361146;32;42295;-78
2022/05/07 13:16:03;;;;;;;;;;;17.10;99.70;;;;;;4361399;32;43936;-78
2022/05/07 13:18:35;;;;;;;;;;;17.10;99.80;;;;;;4361088;32;45315;-77
2022/05/07 13:21:05;;;;;;;;;;;17.10;99.90;;;;;;4347794;32;43596;-76
2022/05/07 13:23:32;;;;;;;;;;;17.20;99.90;;;;;;4360131;32;43769;-76
2022/05/07 13:26:02;;;;;;;;;;;17.20;99.90;;;;;;4348250;32;43890;-78
2022/05/07 13:28:29;;;;;;;;;;;17.20;99.90;;;;;;4347786;32;44170;-76
2022/05/07 13:30:58;;;;;;;;;;;17.30;99.90;;;;;;4360982;32;44046;-77
2022/05/07 13:33:26;;;;;;;;;;;17.30;99.90;;;;;;4360903;32;44266;-76
2022/05/07 13:35:53;;;;;;;;;;;17.30;99.90;;;;;;4360872;32;42161;-76
2022/05/07 13:38:21;;;;;;;;;;;17.30;99.90;;;;;;4361119;32;43683;-77
2022/05/07 13:40:49;;;;;;;;;;;17.30;99.90;;;;;;4360941;32;42025;-76
2022/05/07 13:43:16;;;;;;;;;;;17.40;99.90;;;;;;4360073;32;45552;-76
2022/05/07 13:45:43;;;;;;;;;;;17.40;99.90;;;;;;4360802;32;43094;-76
2022/05/07 13:48:10;;;;;;;;;;;17.40;99.90;;;;;;4360821;32;42786;-76
2022/05/07 13:50:40;;;;;;;;;;;17.50;99.90;;;;;;4360672;32;43450;-76
2022/05/07 13:53:10;;;;;;;;;;;17.50;99.90;;;;;;4347477;32;42776;-77
2022/05/07 13:55:37;;;;;;;;;;;17.50;99.90;;;;;;4347250;32;44832;-76
2022/05/07 13:58:04;;;;;;;;;;;17.50;99.90;;;;;;4361414;32;43923;-76
2022/05/07 14:00:33;;;;;;;;;;;17.60;99.80;;;;;;4360594;32;44313;-76
2022/05/07 14:03:00;;;;;;;;;;;17.60;99.50;;;;;;4360183;32;20676;-77
2022/05/07 14:05:27;;;;;;;;;;;17.60;99.40;;;;;;4360476;32;42835;-76
2022/05/07 14:07:55;;;;;;;;;;;17.70;99.30;;;;;;4360600;32;43852;-76
2022/05/07 14:10:22;;;;;;;;;;;17.70;99.10;;;;;;4360402;32;42355;-76
2022/05/07 14:12:49;;;;;;;;;;;17.70;98.80;;;;;;4360887;32;43020;-76
2022/05/07 14:15:16;;;;;;;;;;;17.70;98.80;;;;;;4360166;32;44215;-76
2022/05/07 14:17:43;;;;;;;;;;;17.70;98.90;;;;;;4360197;32;42794;-76
2022/05/07 14:20:10;;;;;;;;;;;17.70;98.80;;;;;;4360398;32;43405;-76
2022/05/07 14:22:37;;;;;;;;;;;17.80;98.80;;;;;;4360122;32;43483;-76
2022/05/07 14:25:07;;;;;;;;;;;17.80;99.00;;;;;;4360337;32;45927;-76
2022/05/07 14:27:39;;;;;;;;;;;17.80;99.20;;;;;;4360756;32;44220;-76
2022/05/07 14:30:07;;;;;;;;;;;17.80;99.10;;;;;;4360793;32;43021;-76
2022/05/07 14:32:41;;;;;;;;;;;17.80;99.00;;;;;;4347291;32;44184;-76
2022/05/07 14:35:09;;;;;;;;;;;17.80;99.20;;;;;;4360378;32;43587;-76
2022/05/07 14:37:37;;;;;;;;;;;17.80;99.50;;;;;;4360436;32;43763;-76
2022/05/07 14:42:50;;;;;;;;;;;17.80;99.10;;;;;;4360460;32;45206;-78
2022/05/07 14:45:18;;;;;;;;;;;17.80;99.00;;;;;;4360035;32;44413;-77
2022/05/07 14:47:50;;;;;;;;;;;17.80;99.10;;;;;;4360025;32;43602;-77
2022/05/07 14:50:22;;;;;;;;;;;17.90;99.10;;;;;;4360133;32;42862;-76
2022/05/07 14:52:50;;;;;;;;;;;17.90;99.30;;;;;;4360527;32;44215;-76
2022/05/07 14:55:17;;;;;;;;;;;17.90;99.40;;;;;;4359152;32;42666;-77
2022/05/07 14:57:47;;;;;;;;;;;17.90;99.20;;;;;;4359813;32;43134;-76
2022/05/07 15:00:17;;;;;;;;;;;17.90;99.30;;;;;;4346934;32;43116;-77
2022/05/07 15:02:48;;;;;;;;;;;18.00;99.00;;;;;;4346454;32;44235;-76
2022/05/07 15:05:18;;;;;;;;;;;18.00;98.60;;;;;;4359299;32;44263;-77
2022/05/07 15:07:46;;;;;;;;;;;18.00;98.80;;;;;;4360442;32;41987;-75
2022/05/07 15:13:06;;;;;;;;;;;18.00;98.60;;;;;;4360305;32;44198;-76